createdAt,value
2019-03-12T00:00:07.110Z,96
2019-03-12T00:05:07.107Z,96
2019-03-12T00:10:06.928Z,96
2019-03-12T00:15:07.475Z,96
2019-03-12T00:20:07.079Z,96
2019-03-12T00:25:07.321Z,96
2019-03-12T00:30:12.008Z,96
2019-03-12T00:35:07.314Z,96
2019-03-12T00:40:07.788Z,96
2019-03-12T00:45:07.149Z,96
2019-03-12T00:50:07.905Z,96
2019-03-12T00:55:07.349Z,96
2019-03-12T01:00:07.353Z,96
2019-03-12T01:05:07.883Z,96
2019-03-12T01:10:07.227Z,96
2019-03-12T01:15:07.347Z,96
2019-03-12T01:20:07.822Z,96
2019-03-12T01:25:07.308Z,96
2019-03-12T01:30:07.723Z,96
2019-03-12T01:35:07.270Z,96
2019-03-12T01:40:07.629Z,96
2019-03-12T01:45:07.314Z,96
2019-03-12T01:50:07.875Z,96
2019-03-12T01:55:07.827Z,96
2019-03-12T02:00:07.160Z,96
2019-03-12T02:05:07.884Z,96
2019-03-12T02:10:07.462Z,96
2019-03-12T02:15:07.250Z,96
2019-03-12T02:20:06.903Z,96
2019-03-12T02:25:07.145Z,96
2019-03-12T02:30:07.408Z,96
2019-03-12T02:35:06.973Z,96
2019-03-12T02:40:07.884Z,96
2019-03-12T02:45:07.138Z,96
2019-03-12T02:50:07.636Z,96
2019-03-12T02:55:07.837Z,96
2019-03-12T03:00:07.366Z,96
2019-03-12T03:05:07.781Z,96
2019-03-12T03:10:07.919Z,96
2019-03-12T03:15:07.510Z,97
2019-03-12T03:20:07.216Z,97
2019-03-12T03:25:07.622Z,97
2019-03-12T03:30:07.766Z,97
2019-03-12T03:35:07.170Z,97
2019-03-12T03:40:07.404Z,97
2019-03-12T03:45:07.386Z,97
2019-03-12T03:50:08.050Z,97
2019-03-12T03:55:07.264Z,97
2019-03-12T04:00:07.591Z,97
2019-03-12T04:05:07.342Z,97
2019-03-12T04:10:07.418Z,97
2019-03-12T04:15:07.286Z,97
2019-03-12T04:20:07.792Z,97
2019-03-12T04:25:07.162Z,97
2019-03-12T04:30:07.605Z,97
2019-03-12T04:35:07.865Z,97
2019-03-12T04:40:07.543Z,97
2019-03-12T04:45:07.241Z,97
2019-03-12T04:50:07.845Z,97
2019-03-12T04:55:07.190Z,97
2019-03-12T05:00:07.853Z,97
2019-03-12T05:05:07.836Z,97
2019-03-12T05:10:07.225Z,97
2019-03-12T05:15:07.554Z,97
2019-03-12T05:20:07.876Z,97
2019-03-12T05:25:08.105Z,98
2019-03-12T05:30:07.400Z,98
2019-03-12T05:35:07.428Z,98
2019-03-12T05:40:07.904Z,98
2019-03-12T05:45:07.212Z,98
2019-03-12T05:50:07.247Z,98
2019-03-12T05:55:07.637Z,98
2019-03-12T06:00:07.270Z,98
2019-03-12T06:05:07.684Z,98
2019-03-12T06:10:08.234Z,98
2019-03-12T06:15:08.089Z,98
2019-03-12T06:20:07.553Z,98
2019-03-12T06:25:07.287Z,98
2019-03-12T06:30:07.910Z,98
2019-03-12T06:35:07.897Z,98
2019-03-12T06:40:07.560Z,98
2019-03-12T06:45:07.891Z,98
2019-03-12T06:50:07.808Z,98
2019-03-12T06:55:07.616Z,98
2019-03-12T07:00:08.002Z,98
2019-03-12T07:05:07.821Z,98
2019-03-12T07:10:07.964Z,98
2019-03-12T07:15:07.253Z,98
2019-03-12T07:20:08.164Z,98
2019-03-12T07:25:07.441Z,98
2019-03-12T07:30:08.052Z,98
2019-03-12T07:35:07.971Z,98
2019-03-12T07:40:07.700Z,98
2019-03-12T07:45:07.758Z,98
2019-03-12T07:50:07.303Z,98
2019-03-12T07:55:07.847Z,98
2019-03-12T08:00:10.006Z,98
2019-03-12T08:05:08.034Z,99
2019-03-12T08:10:08.095Z,99
2019-03-12T08:15:07.582Z,98
2019-03-12T08:20:10.683Z,98
2019-03-12T08:25:07.600Z,98
2019-03-12T08:30:08.162Z,98
2019-03-12T08:35:07.490Z,99
2019-03-12T08:40:08.455Z,99
2019-03-12T08:45:11.117Z,98
2019-03-12T08:50:07.317Z,98
2019-03-12T08:55:08.220Z,98
2019-03-12T09:00:07.555Z,98
2019-03-12T09:05:08.012Z,98
2019-03-12T09:10:08.046Z,98
2019-03-12T09:15:08.603Z,95
2019-03-12T09:20:07.856Z,95
2019-03-12T09:25:07.987Z,92
2019-03-12T09:30:07.537Z,92
2019-03-12T09:35:07.964Z,89
2019-03-12T09:40:07.411Z,89
2019-03-12T09:45:07.753Z,88
2019-03-12T09:50:08.138Z,88
2019-03-12T09:55:07.649Z,86
2019-03-12T10:00:16.232Z,86
2019-03-12T10:05:07.704Z,85
2019-03-12T10:10:08.169Z,85
2019-03-12T10:15:07.747Z,84
2019-03-12T10:20:08.340Z,84
2019-03-12T10:25:08.090Z,84
2019-03-12T10:30:08.316Z,84
2019-03-12T10:35:07.725Z,83
2019-03-12T10:40:07.654Z,83
2019-03-12T10:45:08.318Z,84
2019-03-12T10:50:08.096Z,84
2019-03-12T10:55:13.000Z,83
2019-03-12T11:00:07.523Z,83
2019-03-12T11:05:08.172Z,83
2019-03-12T11:10:09.210Z,83
2019-03-12T11:15:07.650Z,83
2019-03-12T11:20:07.593Z,83
2019-03-12T11:25:07.604Z,82
2019-03-12T11:30:08.201Z,82
2019-03-12T11:35:07.797Z,83
2019-03-12T11:40:08.294Z,83
2019-03-12T11:45:15.375Z,83
2019-03-12T11:50:07.733Z,83
2019-03-12T11:55:08.447Z,83
2019-03-12T12:00:08.193Z,83
2019-03-12T12:05:08.484Z,84
2019-03-12T12:10:08.423Z,84
2019-03-12T12:15:07.706Z,85
2019-03-12T12:20:07.818Z,85
2019-03-12T12:25:07.720Z,87
2019-03-12T12:30:08.125Z,87
2019-03-12T12:35:08.481Z,88
2019-03-12T12:40:07.723Z,88
2019-03-12T12:45:08.257Z,88
2019-03-12T12:50:07.805Z,88
2019-03-12T12:55:08.168Z,87
2019-03-12T13:00:08.418Z,87
2019-03-12T13:05:08.048Z,86
2019-03-12T13:10:08.208Z,86
2019-03-12T13:15:07.831Z,84
2019-03-12T13:20:08.162Z,84
2019-03-12T13:25:07.691Z,83
2019-03-12T13:30:07.959Z,83
2019-03-12T13:35:08.236Z,82
2019-03-12T13:40:07.799Z,82
2019-03-12T13:45:08.170Z,81
2019-03-12T13:50:08.068Z,81
2019-03-12T13:55:08.598Z,81
2019-03-12T14:00:07.746Z,81
2019-03-12T14:05:08.192Z,80
2019-03-12T14:10:07.981Z,80
2019-03-12T14:15:08.079Z,80
2019-03-12T14:20:07.841Z,80
2019-03-12T14:25:08.435Z,80
2019-03-12T14:30:08.018Z,80
2019-03-12T14:35:08.423Z,80
2019-03-12T14:40:08.017Z,80
2019-03-12T14:45:08.244Z,80
2019-03-12T14:50:08.632Z,80
2019-03-12T14:55:08.150Z,80
2019-03-12T15:00:08.590Z,80
2019-03-12T15:05:08.665Z,79
2019-03-12T15:10:08.015Z,79
2019-03-12T15:15:07.960Z,78
2019-03-12T15:20:08.083Z,78
2019-03-12T15:25:08.516Z,78
2019-03-12T15:30:07.965Z,78
2019-03-12T15:35:08.590Z,77
2019-03-12T15:40:08.078Z,77
2019-03-12T15:45:08.319Z,77
2019-03-12T15:50:09.823Z,77
2019-03-12T15:55:08.451Z,76
2019-03-12T16:00:08.738Z,76
2019-03-12T16:05:08.317Z,76
2019-03-12T16:10:08.135Z,76
2019-03-12T16:15:08.586Z,77
2019-03-12T16:20:08.633Z,77
2019-03-12T16:25:08.067Z,78
2019-03-12T16:30:08.521Z,78
2019-03-12T16:35:07.919Z,77
2019-03-12T16:40:08.526Z,77
2019-03-12T16:45:07.877Z,76
2019-03-12T16:50:08.178Z,76
2019-03-12T16:55:08.573Z,76
2019-03-12T17:00:08.573Z,76
2019-03-12T17:05:07.998Z,75
2019-03-12T17:10:08.786Z,75
2019-03-12T17:15:08.312Z,74
2019-03-12T17:20:08.764Z,74
2019-03-12T17:25:08.013Z,73
2019-03-12T17:30:08.307Z,73
2019-03-12T17:35:08.711Z,72
2019-03-12T17:40:08.459Z,72
2019-03-12T17:45:08.713Z,73
2019-03-12T17:50:08.084Z,73
2019-03-12T17:55:08.281Z,73
2019-03-12T18:00:08.655Z,73
2019-03-12T18:05:08.998Z,74
2019-03-12T18:10:08.646Z,74
2019-03-12T18:15:08.111Z,74
2019-03-12T18:20:08.491Z,74
2019-03-12T18:25:08.849Z,74
2019-03-12T18:30:08.181Z,74
2019-03-12T18:35:08.613Z,73
2019-03-12T18:40:08.926Z,73
2019-03-12T18:45:08.319Z,72
2019-03-12T18:50:08.815Z,72
2019-03-12T18:55:08.032Z,71
2019-03-12T19:00:08.446Z,71
2019-03-12T19:05:08.999Z,71
2019-03-12T19:10:13.153Z,71
2019-03-12T19:15:08.614Z,70
2019-03-12T19:20:08.986Z,70
2019-03-12T19:25:08.312Z,70
2019-03-12T19:30:08.592Z,70
2019-03-12T19:35:09.088Z,70
2019-03-12T19:40:08.300Z,70
2019-03-12T19:45:08.474Z,69
2019-03-12T19:50:08.779Z,69
2019-03-12T19:55:08.122Z,70
2019-03-12T20:00:08.369Z,70
2019-03-12T20:05:08.801Z,69
2019-03-12T20:10:08.420Z,69
2019-03-12T20:15:08.199Z,70
2019-03-12T20:20:08.853Z,70
2019-03-12T20:25:08.157Z,70
2019-03-12T20:30:08.449Z,70
2019-03-12T20:35:08.848Z,70
2019-03-12T20:40:08.382Z,70
2019-03-12T20:45:08.544Z,68
2019-03-12T20:50:08.976Z,68
2019-03-12T20:55:08.225Z,68
2019-03-12T21:00:08.464Z,68
2019-03-12T21:05:09.014Z,66
2019-03-12T21:10:08.788Z,66
2019-03-12T21:15:09.167Z,65
2019-03-12T21:20:08.813Z,65
2019-03-12T21:25:09.047Z,65
2019-03-12T21:30:11.321Z,65
2019-03-12T21:35:09.048Z,67
2019-03-12T21:40:08.392Z,67
2019-03-12T21:45:08.906Z,74
2019-03-12T21:50:08.477Z,74
2019-03-12T21:55:08.281Z,77
2019-03-12T22:00:08.796Z,77
2019-03-12T22:05:09.286Z,79
2019-03-12T22:10:09.025Z,79
2019-03-12T22:15:08.299Z,80
2019-03-12T22:20:08.615Z,80
2019-03-12T22:25:09.095Z,80
2019-03-12T22:30:08.746Z,80
2019-03-12T22:35:09.233Z,80
2019-03-12T22:40:08.814Z,80
2019-03-12T22:45:09.061Z,78
2019-03-12T22:50:08.869Z,78
2019-03-12T22:55:08.790Z,76
2019-03-12T23:00:08.490Z,76
2019-03-12T23:05:09.325Z,75
2019-03-12T23:10:08.828Z,75
2019-03-12T23:15:08.945Z,74
2019-03-12T23:20:08.452Z,74
2019-03-12T23:25:09.040Z,75
2019-03-12T23:30:08.325Z,75
2019-03-12T23:35:08.928Z,76
2019-03-12T23:40:08.507Z,76
2019-03-12T23:45:08.723Z,77
2019-03-12T23:50:09.344Z,77
2019-03-12T23:55:08.843Z,78
